Time;durP1;ratioP1;P1;durP2;ratioP2;P2;SDS_P1;SDS_P2;PMS_P1;PMS_P2;Temp;Humidity;BMP_temperature;BMP_pressure;BME280_temperature;BME280_humidity;BME280_pressure;Samples;Min_cycle;Max_cycle;Signal;HPM_P1;HPM_P2
2023/05/09 00:16:54;;;;;;;12.20;6.97;;;;;;;16.38;76.58;99349.19;4760442;30;20217;-96
2023/05/09 00:19:40;;;;;;;15.63;8.00;;;;;;;16.31;77.00;99345.31;4740929;30;20223;-95
2023/05/09 00:36:17;;;;;;;16.80;9.27;;;;;;;16.18;77.87;99341.84;4724193;30;20304;-94
2023/05/09 00:58:00;;;;;;;11.00;6.53;;;;;;;16.17;78.05;99351.59;4826399;29;20206;-95
2023/05/09 01:00:46;;;;;;;11.60;6.57;;;;;;;16.13;77.92;99352.78;4809726;29;20225;-93
2023/05/09 01:03:58;;;;;;;13.27;6.93;;;;;;;16.06;78.26;99366.56;4867357;29;20225;-96
2023/05/09 01:14:11;;;;;;;;;;;;;;;;;;;;;
2023/05/09 01:20:54;;;;;;;;;;;;;;;;;;;;;
2023/05/09 01:24:10;;;;;;;;;;;;;;;;;;;;;
2023/05/09 01:27:13;;;;;;;12.67;6.53;;;;;;;16.01;78.74;99358.91;4830649;29;20262;-95
2023/05/09 01:33:26;;;;;;;10.23;7.30;;;;;;;16.08;78.63;99362.00;4809847;29;20195;-96
2023/05/09 04:26:37;;;;;;;;;;;;;;;;;;;;;
2023/05/09 04:49:08;;;;;;;;;;;;;;;;;;;;;
2023/05/09 05:10:29;;;;;;;;;;;;;;;;;;;;;
2023/05/09 05:17:33;;;;;;;9.90;4.63;;;;;;;16.37;75.17;99501.81;5853006;24;20196;-93
2023/05/09 05:21:00;;;;;;;;;;;;;;;;;;;;;
2023/05/09 05:23:54;;;;;;;7.23;4.13;;;;;;;16.34;76.61;99502.03;5932265;24;20249;-93
2023/05/09 05:43:15;;;;;;;11.67;4.87;;;;;;;16.24;77.94;99500.13;5907061;23;20239;-92
2023/05/09 05:45:59;;;;;;;;;;;;;;;;;;;;;
2023/05/09 05:48:25;;;;;;;13.40;4.10;;;;;;;16.50;76.57;99493.84;5885054;24;20289;-91
2023/05/09 05:50:51;;;;;;;9.80;4.90;;;;;;;16.47;76.17;99505.50;5899864;24;20199;-95
2023/05/09 05:53:16;;;;;;;6.47;4.50;;;;;;;16.50;75.55;99507.94;5988814;23;20252;-93
2023/05/09 05:55:49;;;;;;;8.43;4.57;;;;;;;16.38;76.42;99511.44;6132254;23;20606;-95
2023/05/09 05:58:17;;;;;;;12.93;4.77;;;;;;;16.26;76.24;99512.31;6132018;23;20146;-94
2023/05/09 06:00:43;;;;;;;10.23;4.37;;;;;;;16.38;75.95;99510.56;6131453;23;20162;-93
2023/05/09 06:03:53;;;;;;;;;;;;;;;;;;;;;
2023/05/09 06:06:42;;;;;;;;;;;;;;;;;;;;;
2023/05/09 06:12:25;;;;;;;15.60;4.13;;;;;;;16.40;75.80;99517.44;6109826;23;20167;-94
2023/05/09 06:14:50;;;;;;;9.17;4.37;;;;;;;16.26;76.63;99514.94;6131293;23;20617;-92
2023/05/09 06:17:29;;;;;;;7.67;4.27;;;;;;;16.39;76.64;99515.78;6130813;23;20158;-94
2023/05/09 06:20:22;;;;;;;;;;;;;;;;;;;;;
2023/05/09 06:41:48;;;;;;;10.70;4.77;;;;;;;16.86;74.64;99515.06;5795439;24;20167;-91
2023/05/09 06:45:04;;;;;;;9.67;4.43;;;;;;;16.79;73.63;99520.91;5840600;24;20162;-91
2023/05/09 06:48:25;;;;;;;;;;;;;;;;;;;;;
2023/05/09 07:33:28;;;;;;;;;;;;;;;;;;;;;
2023/05/09 07:44:41;;;;;;;7.90;4.33;;;;;;;16.73;72.85;99531.94;5843455;24;20208;-90
2023/05/09 07:47:43;;;;;;;9.90;4.77;;;;;;;16.63;72.42;99536.19;5843632;24;20212;-89
2023/05/09 07:53:40;;;;;;;7.83;4.17;;;;;;;16.74;72.26;99533.63;5796058;24;20586;-90
2023/05/09 07:59:17;;;;;;;11.50;5.40;;;;;;;16.78;72.11;99540.41;5898533;24;20244;-90
2023/05/09 08:02:01;;;;;;;;;;;;;;;;;;;;;
2023/05/09 08:04:42;;;;;;;;;;;;;;;;;;;;;
2023/05/09 08:07:10;;;;;;;9.93;4.77;;;;;;;16.83;70.01;99544.41;6154400;23;20658;-89
2023/05/09 08:09:39;;;;;;;11.20;4.50;;;;;;;16.75;70.71;99548.56;6155036;23;20213;-89
2023/05/09 08:12:05;;;;;;;8.70;5.17;;;;;;;16.80;70.54;99547.28;6129461;23;20181;-88
2023/05/09 08:14:35;;;;;;;10.63;5.60;;;;;;;16.78;70.70;99558.94;6128641;23;20673;-88
2023/05/09 08:17:00;;;;;;;15.83;6.40;;;;;;;16.75;70.76;99560.00;6153618;23;20169;-88
2023/05/09 08:19:26;;;;;;;8.20;4.53;;;;;;;16.77;70.98;99565.19;6155016;23;20571;-89
2023/05/09 08:21:54;;;;;;;8.40;4.43;;;;;;;16.87;70.64;99560.94;6155206;23;20154;-89
2023/05/09 08:24:20;;;;;;;9.17;5.50;;;;;;;16.71;70.83;99557.69;6155369;23;20147;-89
2023/05/09 08:37:30;;;;;;;;;;;;;;;;;;;;;
2023/05/09 08:46:57;;;;;;;11.27;5.30;;;;;;;16.65;71.24;99556.31;6008782;23;20205;-89
2023/05/09 08:49:25;;;;;;;10.90;4.97;;;;;;;16.74;70.35;99554.81;6006225;23;20534;-88
2023/05/09 08:52:02;;;;;;;9.60;5.50;;;;;;;16.81;70.71;99542.81;6078579;23;20168;-90
2023/05/09 08:54:28;;;;;;;14.23;5.30;;;;;;;16.78;69.76;99548.34;6118509;23;20182;-88
2023/05/09 08:56:54;;;;;;;11.47;6.00;;;;;;;16.75;70.43;99553.84;6185018;23;20153;-89
2023/05/09 08:59:52;;;;;;;8.17;4.90;;;;;;;16.79;71.67;99555.34;6185260;23;20205;-90
2023/05/09 09:02:21;;;;;;;10.23;5.50;;;;;;;16.70;71.20;99554.19;6174929;23;20159;-88
2023/05/09 09:04:51;;;;;;;9.13;5.60;;;;;;;16.23;72.80;99546.91;6185225;23;20199;-89
2023/05/09 09:07:19;;;;;;;9.30;5.27;;;;;;;16.52;71.90;99550.16;6159221;23;20256;-89
2023/05/09 09:09:47;;;;;;;9.63;4.30;;;;;;;16.70;71.36;99548.03;6185077;23;20151;-89
2023/05/09 09:12:20;;;;;;;8.60;4.33;;;;;;;16.94;70.33;99544.50;6181395;23;20155;-89
2023/05/09 09:14:49;;;;;;;11.37;5.43;;;;;;;16.99;70.22;99536.22;6158434;23;20250;-89
2023/05/09 09:24:22;;;;;;;9.70;4.83;;;;;;;16.66;72.04;99543.94;6106587;23;20155;-88
2023/05/09 09:26:49;;;;;;;8.20;4.50;;;;;;;16.57;71.49;99548.06;6177603;23;20224;-87
2023/05/09 09:29:16;;;;;;;7.80;4.17;;;;;;;16.83;70.29;99546.19;6186615;23;20228;-88
2023/05/09 09:31:46;;;;;;;10.67;4.37;;;;;;;16.95;69.72;99548.00;6185989;23;20147;-88
2023/05/09 09:34:17;;;;;;;8.70;4.53;;;;;;;16.95;69.60;99538.25;6185906;23;20610;-89
2023/05/09 09:36:45;;;;;;;8.20;4.20;;;;;;;16.94;69.79;99541.84;6186985;23;20174;-89
2023/05/09 09:39:20;;;;;;;10.23;4.60;;;;;;;16.88;70.50;99549.38;6161062;23;20238;-89
2023/05/09 09:46:25;;;;;;;6.83;4.03;;;;;;;17.12;68.64;99540.50;5977933;23;20213;-90
2023/05/09 09:48:58;;;;;;;13.30;4.60;;;;;;;17.15;68.56;99539.44;6086687;23;20161;-89
2023/05/09 09:54:14;;;;;;;7.63;3.40;;;;;;;17.19;67.75;99541.75;6110396;23;20201;-89
2023/05/09 09:56:48;;;;;;;6.57;3.63;;;;;;;17.06;67.08;99542.75;6186137;23;20150;-88
2023/05/09 09:59:16;;;;;;;8.77;3.90;;;;;;;17.06;67.55;99543.59;6184873;23;20142;-89
2023/05/09 10:09:21;;;;;;;8.07;4.43;;;;;;;17.02;67.99;99536.84;6037649;23;20158;-88
2023/05/09 10:15:30;;;;;;;7.67;3.30;;;;;;;16.94;67.59;99541.00;6009527;23;20186;-95
2023/05/09 10:18:18;;;;;;;;;;;;;;;;;;;;;
2023/05/09 10:34:47;;;;;;;;;;;;;;;;;;;;;
2023/05/09 10:38:01;;;;;;;;;;;;;;;;;;;;;
2023/05/09 10:41:17;;;;;;;7.57;4.07;;;;;;;17.12;67.73;99532.56;5875356;24;20242;-95
2023/05/09 10:43:46;;;;;;;6.23;4.23;;;;;;;17.08;67.36;99530.25;5893422;24;20163;-95
2023/05/09 10:46:12;;;;;;;6.77;3.57;;;;;;;17.31;67.20;99539.16;6132486;23;20159;-95
2023/05/09 10:49:16;;;;;;;;;;;;;;;;;;;;;
2023/05/09 10:52:20;;;;;;;;;;;;;;;;;;;;;
2023/05/09 10:55:07;;;;;;;9.23;4.50;;;;;;;17.73;64.62;99542.16;6149295;23;20197;-94
2023/05/09 10:57:51;;;;;;;6.50;3.60;;;;;;;17.69;64.53;99543.31;6120684;23;20621;-94
2023/05/09 11:00:23;;;;;;;6.77;3.03;;;;;;;17.78;65.19;99550.59;6130607;23;20147;-96
2023/05/09 11:03:07;;;;;;;9.37;3.60;;;;;;;17.87;64.59;99545.56;6130861;23;20575;-94
2023/05/09 11:05:38;;;;;;;8.00;3.20;;;;;;;17.89;62.29;99543.63;6130480;23;20248;-94
2023/05/09 11:08:36;;;;;;;5.07;3.00;;;;;;;18.03;61.84;99546.09;6130397;23;20159;-95
2023/05/09 11:11:06;;;;;;;7.17;3.90;;;;;;;18.22;61.35;99535.72;6131775;23;20163;-95
2023/05/09 11:13:58;;;;;;;7.50;3.53;;;;;;;18.35;61.79;99542.63;6130538;23;20163;-95
2023/05/09 11:16:42;;;;;;;;;;;;;;;;;;;;;
2023/05/09 11:19:09;;;;;;;5.87;3.10;;;;;;;18.33;60.41;99538.41;6089860;23;20246;-94
2023/05/09 11:22:15;;;;;;;9.40;4.10;;;;;;;18.35;59.73;99539.97;6130059;23;20221;-93
2023/05/09 11:25:00;;;;;;;6.30;3.20;;;;;;;18.41;59.95;99539.50;6132095;23;20547;-94
2023/05/09 11:27:54;;;;;;;6.97;3.57;;;;;;;18.35;61.22;99537.31;6130866;23;20169;-93
2023/05/09 11:30:20;;;;;;;6.47;3.53;;;;;;;18.28;62.18;99530.81;6123037;23;20407;-96
2023/05/09 11:32:52;;;;;;;6.23;3.23;;;;;;;18.29;60.95;99531.66;6131146;23;20155;-95
2023/05/09 11:35:21;;;;;;;5.60;3.70;;;;;;;18.39;60.82;99527.31;6130905;23;20602;-95
2023/05/09 11:38:04;;;;;;;12.43;5.33;;;;;;;18.40;61.34;99526.34;6131135;23;20155;-95
2023/05/09 11:40:31;;;;;;;6.80;3.90;;;;;;;18.41;61.07;99528.03;6131162;23;20340;-94
2023/05/09 11:42:58;;;;;;;6.37;4.07;;;;;;;18.50;60.84;99529.16;6130096;23;20155;-95
2023/05/09 11:45:28;;;;;;;7.77;4.43;;;;;;;18.54;59.82;99523.50;6129656;23;20154;-94
2023/05/09 11:47:55;;;;;;;11.50;4.40;;;;;;;18.50;59.95;99529.97;6130188;23;20143;-94
2023/05/09 11:50:21;;;;;;;9.40;4.47;;;;;;;18.55;60.39;99527.84;6148646;23;20593;-94
2023/05/09 11:52:47;;;;;;;8.30;4.83;;;;;;;18.64;60.13;99520.94;6160205;23;20272;-93
2023/05/09 11:55:30;;;;;;;;;;;;;;;;;;;;;
2023/05/09 11:57:58;;;;;;;7.57;4.17;;;;;;;18.70;59.82;99531.94;6186013;23;20228;-92
2023/05/09 12:00:25;;;;;;;6.40;3.57;;;;;;;18.77;58.82;99517.19;6160346;23;20159;-95
2023/05/09 12:02:51;;;;;;;8.07;4.00;;;;;;;18.63;59.01;99525.41;6159976;23;20173;-94
2023/05/09 12:05:20;;;;;;;7.73;3.60;;;;;;;18.66;58.80;99519.84;6160179;23;20177;-94
2023/05/09 12:07:47;;;;;;;5.97;3.43;;;;;;;18.64;58.03;99524.44;6186084;23;20156;-94
2023/05/09 12:10:15;;;;;;;7.70;3.67;;;;;;;18.71;57.67;99517.66;6160243;23;20177;-94
2023/05/09 12:12:44;;;;;;;5.47;3.27;;;;;;;18.73;58.21;99514.91;6160180;23;20189;-94
2023/05/09 12:15:10;;;;;;;11.77;3.87;;;;;;;18.74;58.71;99512.13;6159945;23;20237;-94
2023/05/09 12:17:36;;;;;;;5.13;2.67;;;;;;;18.67;58.92;99510.06;6160075;23;20159;-94
2023/05/09 12:20:04;;;;;;;6.53;2.93;;;;;;;18.75;59.08;99510.31;6160323;23;20200;-93
2023/05/09 12:22:30;;;;;;;4.97;2.80;;;;;;;18.64;58.59;99511.16;6160318;23;20524;-94
2023/05/09 12:25:00;;;;;;;4.70;2.80;;;;;;;18.66;57.10;99503.91;6160297;23;20156;-94
2023/05/09 12:27:27;;;;;;;8.97;3.17;;;;;;;18.72;57.70;99503.44;6160311;23;20154;-95
2023/05/09 12:29:54;;;;;;;9.17;4.07;;;;;;;18.76;57.88;99494.25;6160207;23;20162;-94
2023/05/09 12:32:20;;;;;;;8.63;4.20;;;;;;;18.81;58.17;99492.09;6160095;23;20598;-95
2023/05/09 12:34:47;;;;;;;6.83;4.10;;;;;;;18.81;58.69;99491.22;6159997;23;20190;-94
2023/05/09 12:37:19;;;;;;;5.70;3.80;;;;;;;18.92;58.71;99481.41;6159916;23;20154;-94
2023/05/09 12:40:01;;;;;;;8.30;4.13;;;;;;;18.98;59.44;99483.56;6159293;23;20571;-94
2023/05/09 12:42:28;;;;;;;7.23;4.03;;;;;;;19.01;59.16;99486.00;6185992;23;20150;-95
2023/05/09 12:44:58;;;;;;;8.63;4.37;;;;;;;19.09;58.82;99476.53;6160079;23;20154;-88
2023/05/09 12:47:30;;;;;;;8.40;3.83;;;;;;;19.10;58.96;99481.75;6184410;23;20145;-88
2023/05/09 12:50:09;;;;;;;5.43;2.53;;;;;;;18.89;57.62;99483.50;6159112;23;20194;-89
2023/05/09 12:52:41;;;;;;;4.23;2.83;;;;;;;18.94;57.40;99476.84;6159354;23;20160;-89
2023/05/09 12:55:30;;;;;;;4.67;2.47;;;;;;;18.91;57.97;99471.78;6185324;23;20650;-89
2023/05/09 12:58:00;;;;;;;5.97;2.60;;;;;;;18.96;57.39;99480.22;6187999;23;20132;-87
2023/05/09 13:00:26;;;;;;;5.50;2.60;;;;;;;18.85;57.40;99474.91;6187395;23;20151;-89
2023/05/09 13:02:55;;;;;;;4.53;2.27;;;;;;;18.98;57.10;99478.25;6161642;23;20231;-88
2023/05/09 13:05:24;;;;;;;4.83;2.77;;;;;;;19.01;56.80;99466.53;6162162;23;20178;-89
2023/05/09 13:21:59;;;;;;;8.17;2.87;;;;;;;19.07;55.20;99452.75;5888988;24;20263;-90
2023/05/09 13:25:00;;;;;;;7.33;3.27;;;;;;;19.03;55.89;99449.50;5899719;24;20163;-90
2023/05/09 13:37:58;;;;;;;;;;;;;;;;;;;;;
2023/05/09 13:40:24;;;;;;;2.90;1.87;;;;;;;18.87;57.37;99459.69;6124725;23;20544;-90
2023/05/09 13:42:52;;;;;;;4.77;2.60;;;;;;;18.78;56.64;99455.16;6151406;23;20182;-89
2023/05/09 13:45:22;;;;;;;5.60;2.23;;;;;;;18.88;56.68;99460.53;6186268;23;20153;-89
2023/05/09 13:48:43;;;;;;;;;;;;;;;;;;;;;
2023/05/09 13:55:44;;;;;;;6.13;2.93;;;;;;;19.19;56.22;99464.19;5940129;24;20723;-89
2023/05/09 13:58:34;;;;;;;6.40;2.67;;;;;;;19.06;56.50;99466.16;5922632;23;20184;-90
2023/05/09 14:01:12;;;;;;;;;;;;;;;;;;;;;
2023/05/09 14:04:30;;;;;;;3.93;2.23;;;;;;;19.15;56.04;99462.75;6066779;23;20224;-90
2023/05/09 14:19:10;;;;;;;;;;;;;;;;;;;;;
2023/05/09 14:47:01;;;;;;;;;;;;;;;;;;;;;
2023/05/09 15:08:00;;;;;;;4.20;1.73;;;;;;;18.61;57.26;99458.31;5713971;25;20172;-94
2023/05/09 15:10:36;;;;;;;3.90;1.93;;;;;;;18.55;57.11;99458.81;5765759;24;20596;-95
2023/05/09 15:13:14;;;;;;;;;;;;;;;;;;;;;
2023/05/09 15:19:56;;;;;;;6.40;1.80;;;;;;;18.55;57.22;99456.16;5757726;24;20179;-94
2023/05/09 15:22:26;;;;;;;3.90;1.90;;;;;;;18.56;57.38;99444.56;5807205;24;20163;-94
2023/05/09 15:28:58;;;;;;;;;;;;;;;;;;;;;
2023/05/09 15:31:47;;;;;;;3.47;1.97;;;;;;;18.37;57.95;99445.16;5966179;23;20564;-94
2023/05/09 15:38:37;;;;;;;;;;;;;;;;;;;;;
2023/05/09 15:41:14;;;;;;;3.20;1.90;;;;;;;18.51;57.98;99446.72;6141445;23;20651;-93
2023/05/09 15:48:12;;;;;;;4.87;2.20;;;;;;;18.53;57.86;99443.94;6007964;23;20171;-93
2023/05/09 15:51:12;;;;;;;8.70;2.50;;;;;;;18.47;58.43;99440.00;5998296;23;20169;-92
2023/05/09 15:54:13;;;;;;;4.50;2.20;;;;;;;18.45;58.86;99444.53;6014647;23;20158;-93
2023/05/09 15:57:26;;;;;;;;;;;;;;;;;;;;;
2023/05/09 16:00:25;;;;;;;4.67;2.10;;;;;;;18.41;59.15;99448.41;6038465;23;20258;-93
2023/05/09 16:03:27;;;;;;;;;;;;;;;;;;;;;
2023/05/09 16:31:08;;;;;;;;;;;;;;;;;;;;;
2023/05/09 16:37:18;;;;;;;;;;;;;;;;;;;;;
2023/05/09 16:43:53;;;;;;;6.57;2.60;;;;;;;18.36;59.99;99463.84;6023482;23;20222;-94
2023/05/09 16:50:57;;;;;;;;;;;;;;;;;;;;;
2023/05/09 16:54:03;;;;;;;;;;;;;;;;;;;;;
2023/05/09 16:57:24;;;;;;;;;;;;;;;;;;;;;
2023/05/09 17:04:18;;;;;;;7.37;2.60;;;;;;;18.13;58.98;99470.94;5952622;24;20178;-95
2023/05/09 17:07:14;;;;;;;4.40;2.33;;;;;;;18.13;58.88;99472.78;5930287;24;20270;-95
2023/05/09 17:10:20;;;;;;;4.07;2.30;;;;;;;18.21;58.93;99475.69;6014322;23;20241;-94
2023/05/09 17:13:06;;;;;;;;;;;;;;;;;;;;;
2023/05/09 17:16:13;;;;;;;;;;;;;;;;;;;;;
2023/05/09 17:18:49;;;;;;;;;;;;;;;;;;;;;
2023/05/09 17:22:07;;;;;;;;;;;;;;;;;;;;;
2023/05/09 17:25:17;;;;;;;;;;;;;;;;;;;;;
2023/05/09 17:28:07;;;;;;;5.30;2.73;;;;;;;18.12;59.67;99487.84;5922511;24;20160;-94
2023/05/09 17:33:42;;;;;;;7.00;2.07;;;;;;;18.14;59.78;99488.56;5911385;24;20161;-94
2023/05/09 17:36:20;;;;;;;6.67;2.83;;;;;;;18.11;60.05;99487.97;6020285;23;20711;-94
2023/05/09 17:38:49;;;;;;;5.67;2.87;;;;;;;18.11;60.26;99495.91;6159528;23;20151;-94
2023/05/09 17:41:19;;;;;;;7.97;3.37;;;;;;;18.06;60.36;99492.78;6159895;23;20154;-94
2023/05/09 17:43:44;;;;;;;5.37;2.53;;;;;;;17.98;60.75;99495.19;6187531;23;20155;-93
2023/05/09 17:46:10;;;;;;;4.10;2.23;;;;;;;17.93;60.88;99492.03;6161752;23;20151;-94
2023/05/09 17:48:38;;;;;;;7.10;2.40;;;;;;;17.84;61.03;99498.06;6161540;23;20225;-93
2023/05/09 17:51:03;;;;;;;5.67;3.23;;;;;;;17.85;60.77;99489.13;6161699;23;20590;-94
2023/05/09 17:53:29;;;;;;;6.93;2.97;;;;;;;17.84;60.88;99496.25;6161536;23;20154;-93
2023/05/09 17:55:56;;;;;;;5.37;2.93;;;;;;;17.80;60.95;99497.44;6161878;23;20546;-95
2023/05/09 17:58:22;;;;;;;5.03;2.67;;;;;;;17.74;60.87;99498.75;6161454;23;20168;-93
2023/05/09 18:00:52;;;;;;;8.27;2.40;;;;;;;17.67;61.46;99502.84;6161541;23;20161;-94
2023/05/09 18:03:17;;;;;;;4.57;2.37;;;;;;;17.67;60.97;99497.53;6161353;23;20488;-94
2023/05/09 18:09:14;;;;;;;3.27;2.07;;;;;;;17.65;60.50;99502.13;6187672;23;20582;-94
2023/05/09 18:11:39;;;;;;;6.83;2.30;;;;;;;17.51;60.25;99502.25;6162398;23;20192;-94
2023/05/09 18:14:05;;;;;;;6.03;2.60;;;;;;;17.39;61.10;99508.50;6161103;23;20501;-94
2023/05/09 18:16:36;;;;;;;4.80;2.87;;;;;;;17.36;60.66;99516.66;6161318;23;20240;-94
2023/05/09 18:19:01;;;;;;;5.40;2.40;;;;;;;17.27;61.46;99527.94;6161548;23;20546;-93
2023/05/09 18:21:28;;;;;;;6.20;2.33;;;;;;;17.38;61.03;99535.94;6161499;23;20182;-93
2023/05/09 18:23:56;;;;;;;4.57;2.23;;;;;;;17.33;60.20;99530.13;6161155;23;20245;-93
2023/05/09 18:26:22;;;;;;;5.30;2.87;;;;;;;17.24;60.08;99529.97;6186851;23;20637;-95
2023/05/09 18:28:47;;;;;;;4.90;2.20;;;;;;;17.13;60.26;99533.41;6161721;23;20154;-92
2023/05/09 18:31:13;;;;;;;5.97;2.47;;;;;;;17.05;60.77;99531.31;6161122;23;20213;-93
2023/05/09 18:33:38;;;;;;;3.60;2.00;;;;;;;17.02;61.15;99538.63;6161174;23;20162;-91
2023/05/09 18:36:07;;;;;;;4.13;2.17;;;;;;;16.91;61.30;99538.56;6161144;23;20218;-94
2023/05/09 18:38:43;;;;;;;5.73;2.27;;;;;;;16.90;60.86;99540.34;6161397;23;20154;-94
2023/05/09 18:41:10;;;;;;;5.60;2.03;;;;;;;16.92;60.51;99537.63;6160966;23;20162;-93
2023/05/09 18:43:40;;;;;;;3.77;2.07;;;;;;;16.81;60.41;99543.69;6186748;23;20177;-92
2023/05/09 18:46:07;;;;;;;3.63;2.13;;;;;;;16.59;60.53;99544.34;6161487;23;20178;-93
2023/05/09 18:49:13;;;;;;;4.23;1.63;;;;;;;16.54;60.90;99549.13;6161911;23;20170;-93
2023/05/09 18:51:38;;;;;;;5.07;2.07;;;;;;;16.66;60.84;99544.78;6107096;23;20252;-91
2023/05/09 18:54:22;;;;;;;4.20;2.10;;;;;;;16.58;61.07;99547.97;6160712;23;20197;-92
2023/05/09 18:56:48;;;;;;;3.83;1.40;;;;;;;16.61;60.83;99551.34;6160934;23;20150;-93
2023/05/09 18:59:16;;;;;;;5.80;2.00;;;;;;;16.60;60.57;99555.78;6186661;23;20153;-93
2023/05/09 19:01:42;;;;;;;3.63;1.60;;;;;;;16.65;60.26;99551.03;6161809;23;20172;-92
2023/05/09 19:04:08;;;;;;;6.43;2.27;;;;;;;16.51;59.98;99557.25;6160762;23;20558;-92
2023/05/09 19:06:33;;;;;;;3.07;1.53;;;;;;;16.49;60.13;99561.81;6160434;23;20161;-92
2023/05/09 19:09:00;;;;;;;3.50;1.60;;;;;;;16.37;60.12;99560.03;6160753;23;20585;-92
2023/05/09 19:11:26;;;;;;;6.23;1.60;;;;;;;16.36;59.86;99552.19;6161108;23;20158;-92
2023/05/09 19:13:52;;;;;;;3.33;1.63;;;;;;;16.23;59.79;99551.34;6160647;23;20178;-93
2023/05/09 19:16:20;;;;;;;1.87;1.10;;;;;;;16.17;59.77;99560.53;6186366;23;20557;-92
2023/05/09 19:18:46;;;;;;;4.33;1.63;;;;;;;16.18;59.76;99559.59;6160308;23;20532;-92
2023/05/09 19:21:13;;;;;;;5.03;1.63;;;;;;;16.10;59.79;99567.19;6161053;23;20201;-92
2023/05/09 19:23:39;;;;;;;3.60;1.70;;;;;;;16.11;59.63;99568.91;6160773;23;20643;-92
2023/05/09 19:26:05;;;;;;;4.97;1.93;;;;;;;16.07;59.75;99567.41;6160286;23;20233;-92
2023/05/09 19:28:30;;;;;;;3.47;1.40;;;;;;;16.16;58.73;99569.44;6160127;23;20174;-92
2023/05/09 19:30:56;;;;;;;4.10;1.50;;;;;;;16.01;59.29;99573.09;6186150;23;20594;-91
2023/05/09 19:33:22;;;;;;;5.83;1.30;;;;;;;15.93;58.92;99578.09;6186798;23;20155;-92
2023/05/09 19:35:47;;;;;;;2.80;1.53;;;;;;;15.84;59.01;99578.69;6160095;23;20246;-93
2023/05/09 19:38:13;;;;;;;4.27;1.20;;;;;;;15.72;58.91;99582.16;6160157;23;20165;-92
2023/05/09 19:40:39;;;;;;;9.40;1.43;;;;;;;15.69;59.32;99574.44;6186474;23;20212;-92
2023/05/09 19:43:04;;;;;;;5.33;1.87;;;;;;;15.73;59.24;99573.28;6186139;23;20152;-91
2023/05/09 19:45:30;;;;;;;2.27;1.30;;;;;;;15.80;58.89;99575.41;6160271;23;20237;-92
2023/05/09 19:47:56;;;;;;;3.70;1.47;;;;;;;15.75;59.41;99576.66;6160275;23;20168;-92
2023/05/09 19:50:21;;;;;;;4.33;1.27;;;;;;;15.73;59.30;99573.28;6159954;23;20174;-91
2023/05/09 19:52:47;;;;;;;4.73;1.97;;;;;;;15.75;59.82;99574.84;6160154;23;20155;-91
2023/05/09 19:55:13;;;;;;;12.33;1.53;;;;;;;15.83;59.65;99569.91;6185613;23;20244;-91
2023/05/09 19:57:39;;;;;;;7.40;1.60;;;;;;;15.61;59.47;99566.16;6185840;23;20533;-91
2023/05/09 20:00:05;;;;;;;2.63;1.70;;;;;;;15.58;59.77;99569.00;6185901;23;20146;-91
2023/05/09 20:02:32;;;;;;;3.47;1.60;;;;;;;15.71;60.25;99565.44;6185112;23;20154;-92
2023/05/09 20:04:59;;;;;;;8.23;1.60;;;;;;;15.81;59.64;99568.31;6158954;23;20500;-91
2023/05/09 20:07:27;;;;;;;3.10;1.67;;;;;;;15.88;60.09;99573.09;6159390;23;20178;-92
2023/05/09 20:09:54;;;;;;;4.57;1.80;;;;;;;15.87;59.13;99570.56;6159915;23;20161;-91
2023/05/09 20:12:20;;;;;;;2.03;1.20;;;;;;;15.90;59.27;99567.72;6159547;23;20150;-91
2023/05/09 20:14:47;;;;;;;2.93;1.33;;;;;;;16.00;59.57;99574.06;6185826;23;20253;-91
2023/05/09 20:17:14;;;;;;;2.07;1.10;;;;;;;16.01;59.09;99570.47;6159851;23;20165;-91
2023/05/09 20:19:40;;;;;;;3.63;1.50;;;;;;;16.02;59.25;99572.16;6185596;23;20183;-91
2023/05/09 20:22:07;;;;;;;3.80;1.57;;;;;;;16.05;59.38;99573.75;6159838;23;20153;-91
2023/05/09 20:24:34;;;;;;;3.40;1.47;;;;;;;16.09;59.32;99569.97;6159624;23;20157;-91
2023/05/09 20:27:03;;;;;;;4.43;2.27;;;;;;;16.12;59.16;99565.28;6185455;23;20149;-92
2023/05/09 20:29:30;;;;;;;6.17;1.50;;;;;;;16.19;58.91;99573.66;6186011;23;20200;-91
2023/05/09 20:31:55;;;;;;;3.20;1.40;;;;;;;16.23;58.86;99570.69;6159800;23;20162;-92
2023/05/09 20:34:23;;;;;;;4.13;1.27;;;;;;;16.29;58.54;99567.66;6160107;23;20190;-91
2023/05/09 20:36:52;;;;;;;2.87;1.20;;;;;;;16.29;58.65;99578.22;6185531;23;20161;-91
2023/05/09 20:39:19;;;;;;;3.63;1.60;;;;;;;16.31;58.69;99571.03;6159734;23;20605;-91
2023/05/09 20:41:47;;;;;;;3.07;1.40;;;;;;;16.29;58.84;99559.72;6159591;23;20624;-91
2023/05/09 20:44:14;;;;;;;3.03;1.70;;;;;;;16.32;58.91;99564.78;6183868;23;20172;-90
2023/05/09 20:46:41;;;;;;;2.90;1.50;;;;;;;16.31;59.33;99559.59;6184955;23;20146;-90
2023/05/09 20:49:08;;;;;;;3.93;1.57;;;;;;;16.28;59.21;99565.94;6184177;23;20153;-89
2023/05/09 20:51:35;;;;;;;3.43;1.30;;;;;;;16.30;58.88;99555.25;6183627;23;20568;-92
2023/05/09 20:54:01;;;;;;;3.67;1.33;;;;;;;16.30;58.71;99564.03;6158975;23;20582;-92
2023/05/09 20:56:30;;;;;;;3.73;1.43;;;;;;;16.33;58.54;99563.81;6183146;23;20162;-93
2023/05/09 20:58:59;;;;;;;1.90;1.10;;;;;;;16.34;58.50;99568.16;6184884;23;20287;-91
2023/05/09 21:01:26;;;;;;;4.53;1.60;;;;;;;16.36;58.22;99570.69;6184667;23;20153;-91
2023/05/09 21:03:53;;;;;;;1.90;1.07;;;;;;;16.38;57.94;99561.69;6185385;23;20154;-91
2023/05/09 21:06:20;;;;;;;2.00;1.40;;;;;;;16.31;57.95;99571.03;6159659;23;20178;-92
2023/05/09 21:08:47;;;;;;;3.93;1.23;;;;;;;16.33;58.32;99570.91;6159365;23;20162;-92
2023/05/09 21:11:13;;;;;;;5.87;1.63;;;;;;;16.31;58.35;99568.38;6159647;23;20163;-92
2023/05/09 21:13:40;;;;;;;4.13;1.40;;;;;;;16.26;58.56;99562.56;6159654;23;20161;-91
2023/05/09 21:16:09;;;;;;;6.47;1.73;;;;;;;16.27;59.07;99564.22;6185231;23;20266;-91
2023/05/09 21:18:34;;;;;;;3.27;1.77;;;;;;;16.23;58.80;99568.06;6161078;23;20170;-92
2023/05/09 21:21:01;;;;;;;2.33;1.30;;;;;;;16.19;59.09;99563.94;6160366;23;20157;-90
2023/05/09 21:23:27;;;;;;;2.50;1.20;;;;;;;16.23;59.22;99564.56;6159922;23;20480;-91
2023/05/09 21:25:52;;;;;;;4.37;1.93;;;;;;;16.26;59.02;99562.56;6186448;23;20189;-91
2023/05/09 21:28:19;;;;;;;4.80;1.90;;;;;;;16.28;59.15;99560.66;6186603;23;20149;-91
2023/05/09 21:30:50;;;;;;;4.30;1.63;;;;;;;16.27;59.23;99558.94;6159326;23;20532;-91
2023/05/09 21:33:16;;;;;;;2.47;1.40;;;;;;;16.22;59.34;99555.75;6186502;23;20217;-91
2023/05/09 21:35:41;;;;;;;8.43;1.47;;;;;;;16.17;59.35;99557.88;6160969;23;20272;-91
2023/05/09 21:38:06;;;;;;;3.73;1.60;;;;;;;16.09;59.82;99560.22;6187236;23;20160;-91
2023/05/09 21:40:32;;;;;;;6.90;1.70;;;;;;;16.01;60.09;99565.16;6161249;23;20157;-91
2023/05/09 21:42:57;;;;;;;3.97;1.47;;;;;;;16.02;60.30;99571.31;6187120;23;20154;-91
2023/05/09 21:45:23;;;;;;;2.70;1.43;;;;;;;15.99;60.32;99570.56;6187583;23;20176;-91
2023/05/09 21:47:48;;;;;;;5.80;1.80;;;;;;;15.91;61.02;99559.66;6187235;23;20159;-92
2023/05/09 21:50:14;;;;;;;7.27;1.53;;;;;;;15.90;61.42;99559.78;6161013;23;20184;-91
2023/05/09 21:52:39;;;;;;;4.20;1.53;;;;;;;15.85;61.75;99557.44;6187155;23;20506;-91
2023/05/09 21:55:05;;;;;;;2.83;1.40;;;;;;;15.88;61.53;99556.38;6187041;23;20177;-91
2023/05/09 21:57:30;;;;;;;5.73;1.73;;;;;;;15.85;61.21;99549.50;6187059;23;20561;-92
2023/05/09 21:59:59;;;;;;;3.90;1.43;;;;;;;15.86;61.19;99553.00;6161163;23;20153;-91
2023/05/09 22:02:25;;;;;;;5.00;1.73;;;;;;;15.89;61.35;99550.16;6187009;23;20211;-91
2023/05/09 22:04:51;;;;;;;4.87;1.27;;;;;;;15.85;61.50;99546.03;6186832;23;20151;-91
2023/05/09 22:07:16;;;;;;;4.20;1.60;;;;;;;15.82;61.85;99546.22;6156912;23;20153;-91
2023/05/09 22:09:42;;;;;;;5.53;2.03;;;;;;;15.74;61.88;99551.19;6160662;23;20179;-91
2023/05/09 22:12:07;;;;;;;3.30;1.53;;;;;;;15.70;61.70;99557.59;6160572;23;20156;-91
2023/05/09 22:14:33;;;;;;;6.63;1.40;;;;;;;15.75;61.10;99555.50;6186581;23;20171;-90
2023/05/09 22:16:58;;;;;;;3.00;1.40;;;;;;;15.61;61.55;99559.09;6160831;23;20168;-91
2023/05/09 22:19:24;;;;;;;7.13;2.40;;;;;;;15.55;62.07;99558.63;6186874;23;20567;-91
2023/05/09 22:21:49;;;;;;;4.63;1.73;;;;;;;15.44;61.87;99554.03;6186793;23;20160;-91
2023/05/09 22:24:15;;;;;;;3.57;1.80;;;;;;;15.39;61.76;99549.06;6186766;23;20149;-92
2023/05/09 22:26:40;;;;;;;3.73;1.50;;;;;;;15.26;61.86;99556.09;6160898;23;20573;-92
2023/05/09 22:29:06;;;;;;;6.43;1.63;;;;;;;15.21;62.51;99555.53;6186551;23;20150;-91
2023/05/09 22:31:31;;;;;;;4.27;2.23;;;;;;;15.19;62.41;99552.16;6186957;23;20231;-91
2023/05/09 22:33:56;;;;;;;3.97;1.70;;;;;;;15.29;62.32;99555.88;6186585;23;20235;-91
2023/05/09 22:36:23;;;;;;;4.40;2.07;;;;;;;15.34;61.50;99550.28;6187007;23;20173;-92
2023/05/09 22:38:49;;;;;;;5.17;1.67;;;;;;;15.38;61.11;99547.34;6161011;23;20192;-91
2023/05/09 22:41:14;;;;;;;5.57;2.03;;;;;;;15.36;60.90;99549.25;6187389;23;20148;-92